KBOK/BOK METAR and TAF weather

Enter ICAO airport designator
Station Type Date Time Source
KBOK METAR 2021/04/13 21:56 UTC NOAA

KBOK 132156Z AUTO 31011G18KT 10SM CLR 19/01 A2989 RMK AO2 WSHFT 2109 SLP122 T01940011


Station Type Date Time Source
KBOK Decoded METAR 2021/04/13 21:56 UTC NOAA

Brookings, Brookings Airport, OR, United States (KBOK) 42-04-28N 124-17-24W
Apr 13, 2021 - 05:56 PM EDT / 2021.04.13 2156 UTC
Wind: from the NW (310 degrees) at 13 MPH (11 KT) gusting to 21 MPH (18 KT):0
Visibility: 10 mile(s):0
Sky conditions: clear
Temperature: 66.9 F (19.4 C)
Dew Point: 34.0 F (1.1 C)
Relative Humidity: 29%
Pressure (altimeter): 29.89 in. Hg (1012 hPa)
ob: KBOK 132156Z AUTO 31011G18KT 10SM CLR 19/01 A2989 RMK AO2 WSHFT 2109 SLP122 T01940011
cycle: 22

Station Type Date Time Source
KBOK TAF UTC NOAA

Error!

Example: see airport list